Time;durP1;ratioP1;P1;durP2;ratioP2;P2;SDS_P1;SDS_P2;PMS_P1;PMS_P2;Temp;Humidity;BMP_temperature;BMP_pressure;BME280_temperature;BME280_humidity;BME280_pressure;Samples;Min_cycle;Max_cycle;Signal;HPM_P1;HPM_P2
2022/01/23 00:00:40;;;;;;;0.60;0.50;;;7.10;99.90;;;;;;5067771;28;20196;-78
2022/01/23 00:03:10;;;;;;;1.90;1.10;;;7.10;99.90;;;;;;5067071;28;20192;-78
2022/01/23 00:05:40;;;;;;;0.50;0.50;;;7.10;99.90;;;;;;5071565;28;20194;-79
2022/01/23 00:08:06;;;;;;;1.30;0.90;;;7.10;99.90;;;;;;5085308;28;20199;-80
2022/01/23 00:10:33;;;;;;;0.50;0.40;;;7.10;99.90;;;;;;5085974;28;20201;-79
2022/01/23 00:13:09;;;;;;;1.00;0.53;;;7.10;99.90;;;;;;5085864;28;20189;-79
2022/01/23 00:18:20;;;;;;;1.07;0.97;;;7.10;99.90;;;;;;5067685;28;20246;-79
2022/01/23 00:20:47;;;;;;;1.00;0.73;;;7.00;99.90;;;;;;5067781;28;20177;-78
2022/01/23 00:23:27;;;;;;;0.90;0.90;;;7.10;99.90;;;;;;5065719;28;20211;-79
2022/01/23 00:31:22;;;;;;;0.93;0.93;;;7.10;99.90;;;;;;5066468;28;20327;-79
2022/01/23 00:33:48;;;;;;;1.60;0.50;;;7.10;99.90;;;;;;5065885;28;20185;-79
2022/01/23 00:36:13;;;;;;;0.77;0.73;;;7.20;99.90;;;;;;5064396;28;20182;-79
2022/01/23 00:38:39;;;;;;;2.23;0.73;;;7.20;99.90;;;;;;5066000;28;20214;-79
2022/01/23 00:41:05;;;;;;;0.70;0.43;;;7.20;99.90;;;;;;5064780;28;20553;-78
2022/01/23 00:43:35;;;;;;;0.40;0.40;;;7.20;99.90;;;;;;5066595;28;20196;-78
2022/01/23 00:51:27;;;;;;;1.60;0.50;;;7.20;99.90;;;;;;5067036;28;20173;-79
2022/01/23 00:53:54;;;;;;;0.60;0.60;;;7.10;99.90;;;;;;5065593;28;20252;-78
2022/01/23 00:56:19;;;;;;;0.90;0.87;;;7.10;99.90;;;;;;5064401;28;20181;-78
2022/01/23 00:58:45;;;;;;;1.17;1.00;;;7.10;99.90;;;;;;5065219;28;20215;-78
2022/01/23 01:01:12;;;;;;;0.70;0.70;;;7.10;99.90;;;;;;5064865;28;20181;-79
2022/01/23 01:03:37;;;;;;;0.90;0.63;;;7.10;99.90;;;;;;5065074;28;20181;-78
2022/01/23 01:06:04;;;;;;;0.53;0.53;;;7.10;99.90;;;;;;5064344;28;20221;-79
2022/01/23 01:08:30;;;;;;;2.20;0.87;;;7.10;99.90;;;;;;5065595;28;20179;-78
2022/01/23 01:30:30;;;;;;;0.73;0.73;;;7.10;99.90;;;;;;5064404;28;20200;-78
2022/01/23 01:33:37;;;;;;;0.80;0.80;;;7.20;99.90;;;;;;5065726;28;20172;-79
2022/01/23 01:38:42;;;;;;;1.20;0.90;;;7.00;99.90;;;;;;5054421;28;20761;-79
2022/01/23 01:41:08;;;;;;;2.00;1.13;;;7.10;99.90;;;;;;5062522;28;20189;-79
2022/01/23 01:43:33;;;;;;;1.23;1.23;;;7.10;99.90;;;;;;5064692;28;20180;-79
2022/01/23 01:45:59;;;;;;;0.87;0.60;;;7.10;99.90;;;;;;5065353;28;20208;-81
2022/01/23 01:48:25;;;;;;;1.47;0.70;;;7.00;99.90;;;;;;5064973;28;20181;-79
2022/01/23 01:50:54;;;;;;;1.47;1.27;;;7.00;99.90;;;;;;5064871;28;20191;-79
2022/01/23 01:53:21;;;;;;;0.33;0.33;;;6.90;99.90;;;;;;5064409;28;20181;-79
2022/01/23 01:55:52;;;;;;;1.67;1.17;;;6.90;99.90;;;;;;5063768;28;20207;-79
2022/01/23 01:58:57;;;;;;;1.77;0.97;;;6.90;99.90;;;;;;5065328;28;20185;-79
2022/01/23 02:09:21;;;;;;;1.80;1.20;;;6.90;99.90;;;;;;5065345;28;20250;-80
2022/01/23 02:14:46;;;;;;;1.80;1.07;;;6.80;99.90;;;;;;5065475;28;20235;-79
2022/01/23 02:23:22;;;;;;;1.13;1.03;;;6.90;99.90;;;;;;5065500;28;20599;-79
2022/01/23 02:25:39;;;;;;;2.37;0.27;;;6.80;99.90;;;;;;5054081;28;20231;-79
2022/01/23 02:50:44;;;;;;;0.67;0.53;;;6.90;99.90;;;;;;5068833;28;20219;-79
2022/01/23 02:53:29;;;;;;;0.77;0.73;;;6.90;99.90;;;;;;5067890;28;20625;-79
2022/01/23 02:55:56;;;;;;;0.20;0.20;;;6.90;99.90;;;;;;5065880;28;20196;-80
2022/01/23 02:58:24;;;;;;;1.53;1.17;;;6.90;99.90;;;;;;5067117;28;20193;-79
2022/01/23 03:01:07;;;;;;;1.13;1.03;;;6.80;99.90;;;;;;5067598;28;20847;-79
2022/01/23 03:03:36;;;;;;;1.17;1.07;;;6.80;99.90;;;;;;5068393;28;20274;-79
2022/01/23 03:14:52;;;;;;;1.20;0.70;;;6.80;99.90;;;;;;5068133;28;20203;-79
2022/01/23 03:30:12;;;;;;;1.67;0.80;;;6.60;99.90;;;;;;5067615;28;20205;-79
2022/01/23 03:32:42;;;;;;;4.80;1.37;;;6.70;99.90;;;;;;5067636;28;20165;-79
2022/01/23 03:35:09;;;;;;;1.73;1.33;;;6.50;99.90;;;;;;5067491;28;20267;-80
2022/01/23 03:37:35;;;;;;;1.33;0.70;;;6.60;99.90;;;;;;5065425;28;20200;-79
2022/01/23 03:40:01;;;;;;;0.63;0.63;;;6.70;99.90;;;;;;5066633;28;20204;-79
2022/01/23 03:42:27;;;;;;;1.53;0.97;;;6.70;99.90;;;;;;5066532;28;20644;-79
2022/01/23 03:47:42;;;;;;;1.57;1.47;;;6.70;99.90;;;;;;5067144;28;20178;-79
2022/01/23 03:50:11;;;;;;;3.00;0.97;;;6.70;99.90;;;;;;5066710;28;20207;-80
2022/01/23 03:52:38;;;;;;;0.23;0.20;;;6.70;99.90;;;;;;5064309;28;21096;-79
2022/01/23 03:55:06;;;;;;;0.80;0.77;;;6.70;99.90;;;;;;5066376;28;20268;-79
2022/01/23 03:57:31;;;;;;;3.10;0.80;;;6.70;99.90;;;;;;5064530;28;20315;-79
2022/01/23 03:59:57;;;;;;;1.27;1.17;;;6.70;99.90;;;;;;5067304;28;20302;-78
2022/01/23 04:02:23;;;;;;;0.87;0.87;;;6.60;99.90;;;;;;5065388;28;20693;-79
2022/01/23 04:04:48;;;;;;;0.20;0.20;;;6.70;99.90;;;;;;5066378;28;20202;-79
2022/01/23 04:07:21;;;;;;;1.40;0.97;;;6.70;99.90;;;;;;5066501;28;20186;-79
2022/01/23 04:09:47;;;;;;;0.70;0.67;;;6.60;99.90;;;;;;5066178;28;20197;-79
2022/01/23 04:14:55;;;;;;;1.73;1.20;;;6.70;99.90;;;;;;5066708;28;20665;-79
2022/01/23 04:33:41;;;;;;;1.30;1.17;;;6.40;99.90;;;;;;5066538;28;20260;-79
2022/01/23 05:00:35;;;;;;;0.40;0.40;;;6.70;99.90;;;;;;5066720;28;20225;-79
2022/01/23 05:03:45;;;;;;;0.60;0.53;;;6.80;99.90;;;;;;5066107;28;20165;-79
2022/01/23 05:05:49;;;;;;;1.93;0.80;;;6.80;99.90;;;;;;5065357;28;20295;-79
2022/01/23 05:08:18;;;;;;;0.53;0.53;;;6.80;99.90;;;;;;5064844;28;20184;-79
2022/01/23 05:10:45;;;;;;;2.30;1.03;;;6.90;99.90;;;;;;5066177;28;20180;-79
2022/01/23 05:13:11;;;;;;;0.57;0.57;;;6.90;99.90;;;;;;5065326;28;20196;-79
2022/01/23 05:15:37;;;;;;;2.57;1.70;;;6.90;99.90;;;;;;5062494;28;21003;-79
2022/01/23 05:18:02;;;;;;;1.43;1.33;;;7.00;99.90;;;;;;5064235;28;20177;-79
2022/01/23 05:20:29;;;;;;;1.53;1.43;;;6.90;99.90;;;;;;5064469;28;20291;-79
2022/01/23 05:23:01;;;;;;;4.47;1.83;;;6.90;99.90;;;;;;5065238;28;20243;-79
2022/01/23 05:25:29;;;;;;;2.43;0.80;;;6.90;99.90;;;;;;5065170;28;20199;-79
2022/01/23 05:27:55;;;;;;;1.00;0.60;;;6.90;99.90;;;;;;5065054;28;20184;-78
2022/01/23 05:30:23;;;;;;;1.97;1.07;;;6.90;99.90;;;;;;5063261;28;20926;-79
2022/01/23 05:32:48;;;;;;;2.40;1.33;;;6.90;99.90;;;;;;5065464;28;20172;-79
2022/01/23 05:35:18;;;;;;;1.20;0.60;;;6.90;99.90;;;;;;5064983;28;20263;-78
2022/01/23 05:37:44;;;;;;;1.57;1.00;;;7.00;99.90;;;;;;5065102;28;20174;-79
2022/01/23 05:40:13;;;;;;;1.47;1.23;;;6.90;99.90;;;;;;5064914;28;20262;-78
2022/01/23 05:42:39;;;;;;;0.63;0.63;;;6.80;99.90;;;;;;5058380;28;20186;-80
2022/01/23 05:45:05;;;;;;;1.27;1.13;;;6.90;99.90;;;;;;5059116;28;20229;-80
2022/01/23 05:47:31;;;;;;;2.70;2.50;;;6.90;99.90;;;;;;5062477;28;20750;-79
2022/01/23 05:49:56;;;;;;;0.73;0.57;;;7.00;99.90;;;;;;5063573;28;20184;-79
2022/01/23 05:52:22;;;;;;;0.70;0.70;;;6.90;99.90;;;;;;5053461;28;20194;-79
2022/01/23 05:54:47;;;;;;;2.37;1.43;;;6.80;99.90;;;;;;5062143;28;20795;-79
2022/01/23 05:57:13;;;;;;;1.03;0.70;;;6.80;99.90;;;;;;5061578;28;20185;-79
2022/01/23 05:59:38;;;;;;;1.23;1.13;;;6.60;99.90;;;;;;5065101;28;20244;-79
2022/01/23 06:02:04;;;;;;;1.80;0.80;;;6.70;99.90;;;;;;5061345;28;20189;-79
2022/01/23 06:04:30;;;;;;;1.70;1.50;;;6.80;99.90;;;;;;5065316;28;20252;-79
2022/01/23 06:06:57;;;;;;;1.80;1.10;;;6.60;99.90;;;;;;5067401;28;20189;-79
2022/01/23 06:09:24;;;;;;;0.67;0.67;;;6.70;99.90;;;;;;5070995;28;20681;-78
2022/01/23 06:11:50;;;;;;;1.07;0.80;;;6.80;99.90;;;;;;5069684;28;20204;-79
2022/01/23 06:14:16;;;;;;;1.13;1.00;;;6.70;99.90;;;;;;5070563;28;20234;-79
2022/01/23 06:16:42;;;;;;;1.00;0.90;;;6.60;99.90;;;;;;5071443;28;20197;-80
2022/01/23 06:19:07;;;;;;;0.80;0.53;;;6.70;99.90;;;;;;5079294;28;20212;-80
2022/01/23 06:21:33;;;;;;;2.93;0.63;;;6.70;99.90;;;;;;5093676;28;20200;-80
2022/01/23 06:24:06;;;;;;;0.90;0.90;;;6.80;99.90;;;;;;5091184;28;20192;-79
2022/01/23 06:26:45;;;;;;;1.33;0.93;;;6.80;99.90;;;;;;5090066;28;20174;-79
2022/01/23 06:29:11;;;;;;;1.77;1.13;;;6.70;99.90;;;;;;5070997;28;20200;-79
2022/01/23 06:31:38;;;;;;;0.90;0.83;;;6.70;99.90;;;;;;5072310;28;20598;-79
2022/01/23 06:34:06;;;;;;;2.10;1.93;;;6.70;99.90;;;;;;5076868;28;20206;-79
2022/01/23 06:36:33;;;;;;;1.03;0.93;;;6.80;99.90;;;;;;5072748;28;20180;-80
2022/01/23 06:38:59;;;;;;;0.57;0.57;;;6.80;99.90;;;;;;5071099;28;20201;-79
2022/01/23 06:41:25;;;;;;;2.10;1.10;;;6.80;99.90;;;;;;5072083;28;20745;-79
2022/01/23 06:43:51;;;;;;;0.63;0.63;;;6.80;99.90;;;;;;5072018;28;20215;-79
2022/01/23 06:46:16;;;;;;;5.90;1.03;;;6.80;99.90;;;;;;5071709;28;20240;-79
2022/01/23 06:48:42;;;;;;;0.37;0.37;;;6.80;99.90;;;;;;5071474;28;20236;-79
2022/01/23 06:51:07;;;;;;;0.80;0.80;;;6.80;99.90;;;;;;5071551;28;20231;-79
2022/01/23 06:53:33;;;;;;;1.00;1.00;;;6.80;99.90;;;;;;5078460;28;20173;-79
2022/01/23 06:55:58;;;;;;;0.63;0.40;;;6.80;99.90;;;;;;5071203;28;20189;-79
2022/01/23 06:58:24;;;;;;;0.70;0.70;;;6.80;99.90;;;;;;5071065;28;20222;-78
2022/01/23 07:00:49;;;;;;;1.67;1.40;;;6.80;99.90;;;;;;5067972;28;20197;-78
2022/01/23 07:03:15;;;;;;;0.80;0.80;;;6.80;99.90;;;;;;5071107;28;20192;-78
2022/01/23 07:05:40;;;;;;;0.63;0.47;;;6.80;99.90;;;;;;5069581;28;20204;-79
2022/01/23 07:08:06;;;;;;;0.97;0.97;;;6.80;99.90;;;;;;5071063;28;20248;-78
2022/01/23 07:10:32;;;;;;;1.03;1.00;;;6.80;99.90;;;;;;5071553;28;20218;-78
2022/01/23 07:12:58;;;;;;;0.30;0.30;;;6.60;99.90;;;;;;5070850;28;20251;-78
2022/01/23 07:15:23;;;;;;;3.10;0.97;;;6.40;99.90;;;;;;5071180;28;20181;-78
2022/01/23 07:17:50;;;;;;;2.63;1.17;;;6.50;99.90;;;;;;5067503;28;20185;-79
2022/01/23 07:20:16;;;;;;;0.50;0.50;;;6.40;99.90;;;;;;5067370;28;20204;-78
2022/01/23 07:22:41;;;;;;;0.50;0.50;;;6.20;99.90;;;;;;5067064;28;20191;-78
2022/01/23 07:25:07;;;;;;;1.77;0.83;;;6.10;99.90;;;;;;5063990;28;20217;-77
2022/01/23 07:27:42;;;;;;;0.70;0.70;;;6.10;99.90;;;;;;5058558;28;20174;-78
2022/01/23 07:30:20;;;;;;;1.03;0.67;;;6.10;99.90;;;;;;5066106;28;20204;-78
2022/01/23 07:32:46;;;;;;;5.27;1.00;;;6.00;99.90;;;;;;5065608;28;20202;-77
2022/01/23 07:35:11;;;;;;;1.60;1.17;;;6.00;99.90;;;;;;5067473;28;20627;-78
2022/01/23 07:37:37;;;;;;;1.87;0.80;;;5.90;99.90;;;;;;5064199;28;20192;-79
2022/01/23 07:40:02;;;;;;;2.53;1.40;;;6.10;99.90;;;;;;5065439;28;20297;-79
2022/01/23 07:42:28;;;;;;;1.00;1.00;;;6.10;99.90;;;;;;5064372;28;20220;-78
2022/01/23 07:44:53;;;;;;;2.63;2.43;;;5.90;99.90;;;;;;5066315;28;20848;-79
2022/01/23 07:47:22;;;;;;;0.87;0.87;;;5.90;99.90;;;;;;5065596;28;20180;-78
2022/01/23 07:49:49;;;;;;;1.57;1.27;;;5.90;99.90;;;;;;5067525;28;20201;-78
2022/01/23 07:52:16;;;;;;;0.83;0.57;;;6.00;99.90;;;;;;5066481;28;20188;-79
2022/01/23 07:54:41;;;;;;;0.70;0.67;;;6.10;99.90;;;;;;5064948;28;20177;-78
2022/01/23 07:57:07;;;;;;;0.70;0.60;;;6.10;99.90;;;;;;5065862;28;20189;-78
2022/01/23 07:59:34;;;;;;;0.73;0.70;;;6.10;99.90;;;;;;5065556;28;20621;-78
2022/01/23 08:02:00;;;;;;;1.43;0.90;;;6.10;99.90;;;;;;5063766;28;20187;-78
2022/01/23 08:04:26;;;;;;;2.97;2.70;;;6.10;99.90;;;;;;5064039;28;20273;-79
2022/01/23 08:07:07;;;;;;;0.57;0.57;;;6.10;99.90;;;;;;5067089;28;20176;-79
2022/01/23 08:09:32;;;;;;;3.30;0.90;;;6.10;99.90;;;;;;5065137;28;20673;-79
2022/01/23 08:11:58;;;;;;;0.47;0.47;;;6.10;99.90;;;;;;5063868;28;20188;-77
2022/01/23 08:14:23;;;;;;;1.40;1.30;;;6.00;99.90;;;;;;5065207;28;20701;-79
2022/01/23 08:16:49;;;;;;;0.83;0.80;;;6.00;99.90;;;;;;5063732;28;20173;-78
2022/01/23 08:19:14;;;;;;;1.30;1.27;;;5.90;99.90;;;;;;5062986;28;20206;-79
2022/01/23 08:21:40;;;;;;;2.00;0.90;;;5.90;99.90;;;;;;5066070;28;20706;-78
2022/01/23 08:24:05;;;;;;;0.67;0.57;;;6.00;99.90;;;;;;5066278;28;20204;-78
2022/01/23 08:26:31;;;;;;;0.57;0.57;;;6.10;99.90;;;;;;5064055;28;20704;-77
2022/01/23 08:28:57;;;;;;;0.97;0.90;;;6.20;99.90;;;;;;5066160;28;20197;-78
2022/01/23 08:31:22;;;;;;;4.13;2.37;;;6.20;99.90;;;;;;5063739;28;20181;-78
2022/01/23 08:33:48;;;;;;;6.80;2.20;;;6.30;99.90;;;;;;5065770;28;20185;-78
2022/01/23 08:36:14;;;;;;;6.20;2.43;;;6.10;99.90;;;;;;5073109;28;20718;-79
2022/01/23 08:38:40;;;;;;;3.47;1.97;;;6.10;99.90;;;;;;5066318;28;20210;-78
2022/01/23 08:43:38;;;;;;;1.90;1.60;;;6.30;99.90;;;;;;5065580;28;20173;-78
2022/01/23 08:46:05;;;;;;;2.10;1.67;;;6.40;99.90;;;;;;5065467;28;20201;-78
2022/01/23 08:48:30;;;;;;;2.83;1.20;;;6.50;99.90;;;;;;5066501;28;20178;-79
2022/01/23 08:50:56;;;;;;;0.57;0.57;;;6.70;99.90;;;;;;5066105;28;20174;-83
2022/01/23 08:53:22;;;;;;;2.93;1.40;;;6.70;99.90;;;;;;5066039;28;20189;-83
2022/01/23 08:55:48;;;;;;;3.80;2.43;;;6.60;99.90;;;;;;5064734;28;20189;-82
2022/01/23 08:58:14;;;;;;;2.47;0.93;;;6.50;99.90;;;;;;5063661;28;20194;-84
2022/01/23 09:00:40;;;;;;;3.20;2.43;;;6.50;99.90;;;;;;5063035;28;20201;-81
2022/01/23 09:03:05;;;;;;;0.93;0.87;;;6.30;99.90;;;;;;5064808;28;20203;-81
2022/01/23 09:05:31;;;;;;;0.53;0.53;;;6.50;99.90;;;;;;5062325;28;20201;-81
2022/01/23 09:07:57;;;;;;;3.90;1.03;;;6.60;99.90;;;;;;5065642;28;20181;-81
2022/01/23 09:10:29;;;;;;;0.30;0.30;;;6.60;99.90;;;;;;5062732;28;20331;-82
2022/01/23 09:13:10;;;;;;;0.60;0.60;;;6.80;99.90;;;;;;5063092;28;20169;-81
2022/01/23 09:15:36;;;;;;;1.83;0.63;;;6.80;99.90;;;;;;5064499;28;20276;-80
2022/01/23 09:18:02;;;;;;;0.30;0.30;;;6.80;99.90;;;;;;5068546;28;20183;-80
2022/01/23 09:20:28;;;;;;;1.53;0.60;;;6.90;99.90;;;;;;5072912;28;20209;-80
2022/01/23 09:22:54;;;;;;;0.63;0.63;;;6.90;99.90;;;;;;5064713;28;20182;-80
2022/01/23 09:25:20;;;;;;;2.23;0.90;;;7.00;99.90;;;;;;5067724;28;20209;-80
2022/01/23 09:27:46;;;;;;;0.53;0.53;;;6.90;99.90;;;;;;5066712;28;20245;-81
2022/01/23 09:30:20;;;;;;;1.23;1.13;;;6.90;99.90;;;;;;5067750;28;20291;-80
2022/01/23 09:32:49;;;;;;;1.30;1.17;;;6.60;99.90;;;;;;5065841;28;20197;-81
2022/01/23 09:35:16;;;;;;;0.77;0.77;;;6.60;99.90;;;;;;5067750;28;20205;-81
2022/01/23 09:37:42;;;;;;;1.33;0.90;;;6.70;99.90;;;;;;5067307;28;20177;-81
2022/01/23 09:40:09;;;;;;;1.83;1.43;;;6.50;99.90;;;;;;5076368;28;20205;-81
2022/01/23 09:42:42;;;;;;;0.40;0.40;;;6.60;99.90;;;;;;5064425;28;20182;-82
2022/01/23 09:45:10;;;;;;;1.60;0.60;;;6.70;99.90;;;;;;5073695;28;20217;-81
2022/01/23 09:47:37;;;;;;;0.93;0.60;;;6.70;99.90;;;;;;5069778;28;20230;-80
2022/01/23 09:50:05;;;;;;;2.93;0.67;;;6.70;99.90;;;;;;5073399;28;20205;-81
2022/01/23 09:52:34;;;;;;;1.03;0.40;;;6.70;99.90;;;;;;5065658;28;20177;-81
2022/01/23 09:55:07;;;;;;;1.23;0.63;;;6.80;99.90;;;;;;5064955;28;20230;-81
2022/01/23 09:57:35;;;;;;;1.03;0.77;;;6.70;99.90;;;;;;5065993;28;20639;-81
2022/01/23 10:00:03;;;;;;;0.90;0.90;;;6.70;99.90;;;;;;5061207;28;20224;-81
2022/01/23 10:02:29;;;;;;;0.80;0.80;;;6.80;99.90;;;;;;5062383;28;20188;-80
2022/01/23 10:04:56;;;;;;;0.83;0.83;;;7.10;99.90;;;;;;5058530;28;20218;-76
2022/01/23 10:07:22;;;;;;;0.67;0.67;;;7.30;99.90;;;;;;5063313;28;20174;-80
2022/01/23 10:09:54;;;;;;;1.77;1.13;;;7.50;99.90;;;;;;5063645;28;20196;-80
2022/01/23 10:12:23;;;;;;;1.13;0.97;;;7.20;99.90;;;;;;5062630;28;20231;-80
2022/01/23 10:14:49;;;;;;;2.40;1.30;;;7.00;99.90;;;;;;5063118;28;20702;-81
2022/01/23 10:17:15;;;;;;;0.83;0.70;;;7.10;99.90;;;;;;5065506;28;20193;-81
2022/01/23 10:19:41;;;;;;;2.67;0.87;;;7.30;99.90;;;;;;5063288;28;20200;-80
2022/01/23 10:22:07;;;;;;;3.67;0.60;;;7.10;99.90;;;;;;5063981;28;20643;-81
2022/01/23 10:24:33;;;;;;;1.13;0.40;;;7.30;99.90;;;;;;5064942;28;20262;-81
2022/01/23 10:27:00;;;;;;;2.70;0.57;;;7.20;99.90;;;;;;5068254;28;20752;-80
2022/01/23 10:29:27;;;;;;;0.87;0.87;;;7.00;99.90;;;;;;5069743;28;20276;-80
2022/01/23 10:32:14;;;;;;;2.63;0.67;;;7.20;99.90;;;;;;5071641;28;20177;-80
2022/01/23 10:34:58;;;;;;;3.30;0.50;;;7.20;99.90;;;;;;5071018;28;20185;-80
2022/01/23 10:37:27;;;;;;;1.10;0.60;;;7.40;99.90;;;;;;5070291;28;20185;-80
2022/01/23 10:39:53;;;;;;;0.67;0.67;;;7.40;99.90;;;;;;5068155;28;20198;-80
2022/01/23 10:48:35;;;;;;;1.03;0.97;;;7.10;99.90;;;;;;5063636;28;20204;-79
2022/01/23 10:51:20;;;;;;;0.80;0.80;;;7.20;99.90;;;;;;5062620;28;20169;-78
2022/01/23 10:54:06;;;;;;;1.10;1.10;;;7.10;99.90;;;;;;5066259;28;20164;-78
2022/01/23 10:56:35;;;;;;;1.93;0.97;;;7.10;99.90;;;;;;5068000;28;20187;-78
2022/01/23 10:59:08;;;;;;;1.17;0.97;;;7.10;99.90;;;;;;5065889;28;20216;-78
2022/01/23 11:01:34;;;;;;;0.40;0.40;;;7.10;99.90;;;;;;5064151;28;20185;-78
2022/01/23 11:04:04;;;;;;;0.60;0.60;;;7.20;99.90;;;;;;5064297;28;20938;-78
2022/01/23 11:06:30;;;;;;;0.77;0.77;;;7.50;99.90;;;;;;5064553;28;20204;-78
2022/01/23 11:09:09;;;;;;;1.00;0.77;;;7.80;99.90;;;;;;5067155;28;20200;-78
2022/01/23 11:11:44;;;;;;;0.97;0.90;;;8.10;99.90;;;;;;5067983;28;20541;-78
2022/01/23 11:19:51;;;;;;;0.67;0.67;;;8.50;99.90;;;;;;5065033;28;20693;-78
2022/01/23 11:22:20;;;;;;;0.40;0.40;;;8.50;99.90;;;;;;5066372;28;20202;-79
2022/01/23 11:24:48;;;;;;;0.83;0.83;;;8.20;99.90;;;;;;5065033;28;20309;-79
2022/01/23 11:27:19;;;;;;;1.23;0.40;;;8.30;99.90;;;;;;5065974;28;20175;-80
2022/01/23 11:30:12;;;;;;;1.30;0.53;;;8.10;99.90;;;;;;5066617;28;20220;-79
2022/01/23 11:32:40;;;;;;;0.60;0.60;;;8.20;99.90;;;;;;5061051;28;20554;-78
2022/01/23 11:35:13;;;;;;;0.50;0.50;;;8.30;99.90;;;;;;5066795;28;20190;-78
2022/01/23 11:37:49;;;;;;;1.90;0.60;;;8.50;99.90;;;;;;5065934;28;20181;-78
2022/01/23 11:40:41;;;;;;;0.33;0.30;;;8.30;99.90;;;;;;5067210;28;20225;-78
2022/01/23 11:54:48;;;;;;;0.50;0.50;;;7.90;99.90;;;;;;5066601;28;20192;-79
2022/01/23 11:57:33;;;;;;;0.90;0.90;;;8.00;99.90;;;;;;5065516;28;20272;-79
2022/01/23 12:00:01;;;;;;;0.93;0.50;;;8.00;99.90;;;;;;5067572;28;20220;-79
2022/01/23 12:02:32;;;;;;;0.67;0.67;;;8.00;99.90;;;;;;5068343;28;20239;-80
2022/01/23 12:05:21;;;;;;;1.70;1.13;;;7.90;99.90;;;;;;5071158;28;20215;-82
2022/01/23 12:08:16;;;;;;;1.47;0.67;;;7.80;99.90;;;;;;5076416;28;20170;-79
2022/01/23 12:11:16;;;;;;;0.03;0.03;;;7.80;99.90;;;;;;5073858;28;20266;-81
2022/01/23 12:17:08;;;;;;;1.37;1.13;;;7.80;99.90;;;;;;5065511;28;20194;-80
2022/01/23 12:19:53;;;;;;;4.10;0.67;;;7.70;99.90;;;;;;5073936;28;20787;-81
2022/01/23 12:22:24;;;;;;;4.17;0.73;;;7.70;99.90;;;;;;5061555;28;20189;-80
2022/01/23 12:24:51;;;;;;;0.10;0.10;;;7.90;99.90;;;;;;5070163;28;20206;-79
2022/01/23 12:27:29;;;;;;;0.30;0.30;;;8.20;99.90;;;;;;5074183;28;20174;-83
2022/01/23 12:30:11;;;;;;;0.90;0.90;;;8.50;99.90;;;;;;5075236;28;20211;-82
2022/01/23 12:32:37;;;;;;;0.17;0.17;;;8.00;99.90;;;;;;5076209;28;20241;-83
2022/01/23 12:35:07;;;;;;;0.67;0.57;;;8.00;99.90;;;;;;5072614;28;20208;-81
2022/01/23 12:38:00;;;;;;;0.30;0.30;;;8.40;99.90;;;;;;5074109;28;20190;-81
2022/01/23 12:40:29;;;;;;;0.30;0.30;;;8.30;99.90;;;;;;5075419;28;20713;-79
2022/01/23 12:43:04;;;;;;;0.77;0.77;;;8.00;99.90;;;;;;5071953;28;20189;-79
2022/01/23 12:45:59;;;;;;;0.10;0.10;;;8.10;99.90;;;;;;5074423;28;20196;-80
2022/01/23 12:48:25;;;;;;;0.50;0.50;;;8.50;99.90;;;;;;5075266;28;20179;-83
2022/01/23 12:50:53;;;;;;;0.20;0.20;;;8.80;99.90;;;;;;5073826;28;20196;-79
2022/01/23 12:53:19;;;;;;;0.27;0.27;;;8.70;99.90;;;;;;5074582;28;20193;-83
2022/01/23 12:56:09;;;;;;;0.80;0.80;;;8.40;99.90;;;;;;5073577;28;20190;-80
2022/01/23 12:58:35;;;;;;;1.40;0.70;;;8.00;99.90;;;;;;5073697;28;20190;-80
2022/01/23 13:01:05;;;;;;;0.50;0.40;;;8.00;99.90;;;;;;5071219;28;20228;-77
2022/01/23 13:03:36;;;;;;;0.30;0.30;;;8.10;99.90;;;;;;5069713;28;20634;-78
2022/01/23 13:06:06;;;;;;;0.30;0.30;;;8.20;99.90;;;;;;5067322;28;20231;-78
2022/01/23 13:08:45;;;;;;;0.63;0.63;;;8.40;99.90;;;;;;5069389;28;20193;-78
2022/01/23 13:11:43;;;;;;;0.90;0.67;;;8.60;99.90;;;;;;5066817;28;20643;-78
2022/01/23 13:13:59;;;;;;;0.30;0.30;;;8.80;99.90;;;;;;5064487;28;20220;-78
2022/01/23 13:16:36;;;;;;;0.50;0.50;;;8.80;99.90;;;;;;5064459;28;20269;-77
2022/01/23 13:19:43;;;;;;;0.27;0.27;;;8.50;99.90;;;;;;5063047;28;21157;-78
2022/01/23 13:30:53;;;;;;;0.60;0.60;;;8.90;99.90;;;;;;5018403;28;20277;-78
2022/01/23 13:33:24;;;;;;;0.20;0.20;;;9.00;99.90;;;;;;5062362;28;20227;-78
2022/01/23 13:35:52;;;;;;;1.50;0.40;;;8.90;99.90;;;;;;5063096;28;20193;-78
2022/01/23 13:38:23;;;;;;;1.40;0.70;;;8.20;99.90;;;;;;5066111;28;20190;-76
2022/01/23 13:40:58;;;;;;;0.30;0.30;;;8.10;99.90;;;;;;5062802;28;20936;-77
2022/01/23 13:59:58;;;;;;;0.17;0.17;;;8.70;99.90;;;;;;5060570;28;20278;-77
2022/01/23 14:02:36;;;;;;;0.83;0.77;;;8.40;99.90;;;;;;5068678;28;20673;-78
2022/01/23 14:05:27;;;;;;;0.40;0.40;;;8.20;99.90;;;;;;5059096;28;20215;-77
2022/01/23 14:07:55;;;;;;;0.47;0.47;;;8.30;99.90;;;;;;5064461;28;20177;-77
2022/01/23 14:10:30;;;;;;;0.30;0.30;;;8.30;99.90;;;;;;5063947;28;20212;-77
2022/01/23 14:13:16;;;;;;;1.10;0.27;;;8.30;99.90;;;;;;5061955;28;20185;-77
2022/01/23 14:15:48;;;;;;;0.90;0.90;;;8.20;99.90;;;;;;5076017;28;20209;-78
2022/01/23 14:18:24;;;;;;;0.50;0.33;;;8.00;99.90;;;;;;5071831;28;20221;-81
2022/01/23 14:21:11;;;;;;;0.87;0.20;;;8.00;99.90;;;;;;5067935;28;20177;-79
2022/01/23 14:23:57;;;;;;;0.30;0.30;;;7.70;99.90;;;;;;5068709;28;20240;-79
2022/01/23 14:26:22;;;;;;;0.23;0.23;;;7.70;99.90;;;;;;5057232;28;20221;-80
2022/01/23 14:28:50;;;;;;;0.17;0.17;;;7.80;99.90;;;;;;5057536;28;20213;-78
2022/01/23 14:31:23;;;;;;;0.20;0.20;;;7.80;99.90;;;;;;5057399;28;20186;-80
2022/01/23 14:33:55;;;;;;;0.33;0.33;;;7.90;99.90;;;;;;5058185;28;20172;-80
2022/01/23 14:36:28;;;;;;;0.60;0.53;;;7.80;99.90;;;;;;5070976;28;20209;-81
2022/01/23 14:39:09;;;;;;;4.80;0.80;;;7.70;99.90;;;;;;5071913;28;20263;-81
2022/01/23 14:41:38;;;;;;;0.53;0.30;;;7.80;99.90;;;;;;5067428;28;20186;-78
2022/01/23 14:44:20;;;;;;;1.37;1.27;;;8.00;99.90;;;;;;5066271;28;20646;-78
2022/01/23 14:46:48;;;;;;;0.37;0.37;;;8.00;99.90;;;;;;5069685;28;20672;-78
2022/01/23 14:49:21;;;;;;;1.50;0.50;;;7.90;99.90;;;;;;5067138;28;20964;-80
2022/01/23 14:51:47;;;;;;;0.10;0.10;;;7.70;99.90;;;;;;5075019;28;20209;-83
2022/01/23 14:54:13;;;;;;;0.97;0.80;;;7.90;99.90;;;;;;5072195;28;20177;-79
2022/01/23 14:56:39;;;;;;;0.40;0.23;;;7.70;99.90;;;;;;5070830;28;20618;-79
2022/01/23 14:59:10;;;;;;;0.80;0.80;;;7.70;99.90;;;;;;5070314;28;20221;-79
2022/01/23 15:01:36;;;;;;;0.17;0.17;;;7.50;99.90;;;;;;5072479;28;20199;-82
2022/01/23 15:04:06;;;;;;;0.30;0.30;;;7.70;99.90;;;;;;5071939;28;20186;-80
2022/01/23 15:06:32;;;;;;;0.90;0.57;;;7.80;99.90;;;;;;5075495;28;20197;-81
2022/01/23 15:09:10;;;;;;;0.27;0.27;;;7.90;99.90;;;;;;5077832;28;20203;-80
2022/01/23 15:11:37;;;;;;;0.10;0.10;;;7.90;99.90;;;;;;5073405;28;20244;-79
2022/01/23 15:14:05;;;;;;;0.30;0.30;;;7.80;99.90;;;;;;5065204;28;20273;-81
2022/01/23 15:16:31;;;;;;;0.13;0.13;;;7.90;99.90;;;;;;5073177;28;20292;-79
2022/01/23 15:18:57;;;;;;;0.20;0.20;;;8.00;99.90;;;;;;5072806;28;20208;-80
2022/01/23 15:21:23;;;;;;;0.20;0.20;;;8.10;99.90;;;;;;5071396;28;20256;-79
2022/01/23 15:23:55;;;;;;;0.47;0.40;;;7.80;99.90;;;;;;5068391;28;20195;-78
2022/01/23 15:26:21;;;;;;;0.20;0.20;;;7.60;99.90;;;;;;5064920;28;20452;-79
2022/01/23 15:28:47;;;;;;;1.03;0.90;;;7.50;99.90;;;;;;5068972;28;20307;-79
2022/01/23 15:31:12;;;;;;;0.10;0.10;;;7.30;99.90;;;;;;5069372;28;20241;-80
2022/01/23 15:33:38;;;;;;;1.20;0.77;;;7.30;99.90;;;;;;5067262;28;20189;-80
2022/01/23 15:36:04;;;;;;;0.40;0.40;;;7.30;99.90;;;;;;5070772;28;20204;-78
2022/01/23 15:38:30;;;;;;;0.43;0.40;;;7.20;99.90;;;;;;5070311;28;20190;-77
2022/01/23 15:40:56;;;;;;;0.33;0.33;;;7.20;99.90;;;;;;5071785;28;20180;-80
2022/01/23 15:43:21;;;;;;;0.20;0.20;;;7.40;99.90;;;;;;5072278;28;20178;-80
2022/01/23 15:45:47;;;;;;;0.50;0.50;;;7.30;99.90;;;;;;5060715;28;20275;-80
2022/01/23 15:48:13;;;;;;;0.27;0.27;;;7.10;99.90;;;;;;5064870;28;20177;-81
2022/01/23 15:50:38;;;;;;;0.37;0.37;;;7.00;99.90;;;;;;5072685;28;20262;-79
2022/01/23 15:53:04;;;;;;;0.10;0.10;;;7.20;99.90;;;;;;5075424;28;20181;-81
2022/01/23 15:55:30;;;;;;;0.57;0.57;;;7.40;99.90;;;;;;5075571;28;20192;-81
2022/01/23 15:57:57;;;;;;;0.43;0.43;;;7.50;99.90;;;;;;5068452;28;20186;-81
2022/01/23 16:00:24;;;;;;;0.47;0.20;;;7.40;99.90;;;;;;5065445;28;20225;-78
2022/01/23 16:02:50;;;;;;;0.47;0.47;;;7.40;99.90;;;;;;5064187;28;20213;-77
2022/01/23 16:05:18;;;;;;;0.40;0.40;;;7.40;99.90;;;;;;5064670;28;20274;-78
2022/01/23 16:07:44;;;;;;;0.13;0.13;;;7.40;99.90;;;;;;5064822;28;20286;-80
2022/01/23 16:10:10;;;;;;;0.40;0.40;;;7.50;99.90;;;;;;5067409;28;20224;-78
2022/01/23 16:12:37;;;;;;;0.17;0.17;;;7.50;99.90;;;;;;5062324;28;20192;-78
2022/01/23 16:15:05;;;;;;;0.30;0.30;;;7.50;99.90;;;;;;5061367;28;20545;-78
2022/01/23 16:17:31;;;;;;;0.27;0.27;;;7.50;99.90;;;;;;5063288;28;20189;-78
2022/01/23 16:19:58;;;;;;;1.30;0.53;;;7.50;99.90;;;;;;5063342;28;20213;-78
2022/01/23 16:22:24;;;;;;;0.67;0.67;;;7.40;99.90;;;;;;5063113;28;20177;-78
2022/01/23 16:24:50;;;;;;;0.40;0.40;;;7.10;99.90;;;;;;5058913;28;20303;-78
2022/01/23 16:27:15;;;;;;;4.47;0.27;;;6.90;99.90;;;;;;5060759;28;20194;-78